Jennings, Kansas
Current Conditions -  °F | °C
As of 9:53 AM on Saturday 25 Oct 2014 (Local Time) from KHLC Reporting Station
Clear Clear  
Wind Chill: 59°   Ceiling: Unl
Heat Index: 59°   Visibility: 10mi
Dew Point: 44°   Wind: 5mph
Humidity: 58%   Direction: 330°NNW
Pressure: 30.1"   Gusts: NA
Location:  39.68°N, 100.29°W
Report Text: KHLC 251453Z AUTO 33004KT 10SM CLR 15/07 A3010 RMK AO2 SLP186 T01500067 51014
Loading
Personal Weather Stations






























Interactive Weather Map
Tropical Storm Tracking
New forecast layout! Learn more

10-Day Weather Forecast

Advertisements
Track Severe Weather on mobile